sensor_id;sensor_type;location;lat;lon;timestamp;P1;durP1;ratioP1;P2;durP2;ratioP2
51296;SDS011;37380;45.186;9.792;2023-05-14T00:02:13;4.07;;;2.58;;
51296;SDS011;37380;45.186;9.792;2023-05-14T00:05:08;6.57;;;2.53;;
51296;SDS011;37380;45.186;9.792;2023-05-14T00:07:35;2.55;;;2.08;;
51296;SDS011;37380;45.186;9.792;2023-05-14T00:10:02;1.98;;;1.63;;
51296;SDS011;37380;45.186;9.792;2023-05-14T00:12:30;1.70;;;1.60;;
51296;SDS011;37380;45.186;9.792;2023-05-14T00:15:04;2.05;;;1.75;;
51296;SDS011;37380;45.186;9.792;2023-05-14T00:18:03;5.35;;;1.90;;
51296;SDS011;37380;45.186;9.792;2023-05-14T00:20:31;1.92;;;1.83;;
51296;SDS011;37380;45.186;9.792;2023-05-14T00:22:58;2.53;;;2.33;;
51296;SDS011;37380;45.186;9.792;2023-05-14T00:25:25;2.25;;;1.67;;
51296;SDS011;37380;45.186;9.792;2023-05-14T00:27:52;2.25;;;1.55;;
51296;SDS011;37380;45.186;9.792;2023-05-14T00:30:19;4.28;;;1.77;;
51296;SDS011;37380;45.186;9.792;2023-05-14T00:32:48;4.53;;;1.98;;
51296;SDS011;37380;45.186;9.792;2023-05-14T00:35:15;6.68;;;1.45;;
51296;SDS011;37380;45.186;9.792;2023-05-14T00:37:41;1.80;;;1.50;;
51296;SDS011;37380;45.186;9.792;2023-05-14T00:40:08;4.15;;;2.10;;
51296;SDS011;37380;45.186;9.792;2023-05-14T00:42:39;1.50;;;1.40;;
51296;SDS011;37380;45.186;9.792;2023-05-14T00:45:06;12.73;;;1.67;;
51296;SDS011;37380;45.186;9.792;2023-05-14T00:47:34;5.25;;;1.77;;
51296;SDS011;37380;45.186;9.792;2023-05-14T00:50:02;4.65;;;2.15;;
51296;SDS011;37380;45.186;9.792;2023-05-14T00:52:30;11.23;;;2.55;;
51296;SDS011;37380;45.186;9.792;2023-05-14T00:54:57;5.55;;;1.60;;
51296;SDS011;37380;45.186;9.792;2023-05-14T00:57:59;3.70;;;1.40;;
51296;SDS011;37380;45.186;9.792;2023-05-14T01:00:47;4.15;;;1.38;;
51296;SDS011;37380;45.186;9.792;2023-05-14T01:03:48;3.63;;;1.73;;
51296;SDS011;37380;45.186;9.792;2023-05-14T01:09:52;3.97;;;1.65;;
51296;SDS011;37380;45.186;9.792;2023-05-14T01:15:45;2.92;;;1.77;;
51296;SDS011;37380;45.186;9.792;2023-05-14T01:18:16;3.08;;;1.58;;
51296;SDS011;37380;45.186;9.792;2023-05-14T01:20:45;2.75;;;1.85;;
51296;SDS011;37380;45.186;9.792;2023-05-14T01:23:15;3.45;;;1.75;;
51296;SDS011;37380;45.186;9.792;2023-05-14T01:25:42;9.70;;;1.73;;
51296;SDS011;37380;45.186;9.792;2023-05-14T01:28:16;4.40;;;1.67;;
51296;SDS011;37380;45.186;9.792;2023-05-14T01:31:06;1.77;;;1.63;;
51296;SDS011;37380;45.186;9.792;2023-05-14T01:33:37;7.65;;;2.28;;
51296;SDS011;37380;45.186;9.792;2023-05-14T01:36:07;1.48;;;1.38;;
51296;SDS011;37380;45.186;9.792;2023-05-14T01:38:35;6.13;;;1.83;;
51296;SDS011;37380;45.186;9.792;2023-05-14T01:41:04;3.78;;;2.10;;
51296;SDS011;37380;45.186;9.792;2023-05-14T01:43:33;1.73;;;1.63;;
51296;SDS011;37380;45.186;9.792;2023-05-14T01:46:02;4.18;;;2.10;;
51296;SDS011;37380;45.186;9.792;2023-05-14T01:48:30;3.67;;;2.33;;
51296;SDS011;37380;45.186;9.792;2023-05-14T01:50:57;2.80;;;2.33;;
51296;SDS011;37380;45.186;9.792;2023-05-14T01:53:24;3.90;;;2.50;;
51296;SDS011;37380;45.186;9.792;2023-05-14T01:55:58;11.57;;;3.05;;
51296;SDS011;37380;45.186;9.792;2023-05-14T01:58:52;2.28;;;2.08;;
51296;SDS011;37380;45.186;9.792;2023-05-14T02:01:28;3.40;;;2.95;;
51296;SDS011;37380;45.186;9.792;2023-05-14T02:04:22;3.72;;;3.42;;
51296;SDS011;37380;45.186;9.792;2023-05-14T02:06:57;7.75;;;4.18;;
51296;SDS011;37380;45.186;9.792;2023-05-14T02:09:58;6.57;;;3.65;;
51296;SDS011;37380;45.186;9.792;2023-05-14T02:12:55;3.97;;;3.60;;
51296;SDS011;37380;45.186;9.792;2023-05-14T02:15:22;4.82;;;3.63;;
51296;SDS011;37380;45.186;9.792;2023-05-14T02:17:50;8.55;;;3.50;;
51296;SDS011;37380;45.186;9.792;2023-05-14T02:20:18;5.55;;;4.65;;
51296;SDS011;37380;45.186;9.792;2023-05-14T02:22:45;5.20;;;4.70;;
51296;SDS011;37380;45.186;9.792;2023-05-14T02:25:12;6.15;;;3.67;;
51296;SDS011;37380;45.186;9.792;2023-05-14T02:27:39;10.90;;;4.10;;
51296;SDS011;37380;45.186;9.792;2023-05-14T02:30:07;8.25;;;4.97;;
51296;SDS011;37380;45.186;9.792;2023-05-14T02:32:35;6.75;;;5.28;;
51296;SDS011;37380;45.186;9.792;2023-05-14T02:35:03;5.18;;;4.68;;
51296;SDS011;37380;45.186;9.792;2023-05-14T02:37:31;7.13;;;4.97;;
51296;SDS011;37380;45.186;9.792;2023-05-14T02:40:00;7.15;;;5.85;;
51296;SDS011;37380;45.186;9.792;2023-05-14T02:42:27;6.22;;;5.57;;
51296;SDS011;37380;45.186;9.792;2023-05-14T02:44:55;6.63;;;5.95;;
51296;SDS011;37380;45.186;9.792;2023-05-14T02:47:22;9.63;;;5.35;;
51296;SDS011;37380;45.186;9.792;2023-05-14T02:49:50;7.35;;;5.60;;
51296;SDS011;37380;45.186;9.792;2023-05-14T02:52:17;5.80;;;5.40;;
51296;SDS011;37380;45.186;9.792;2023-05-14T02:54:44;6.57;;;6.00;;
51296;SDS011;37380;45.186;9.792;2023-05-14T02:57:18;11.00;;;5.70;;
51296;SDS011;37380;45.186;9.792;2023-05-14T03:00:19;6.40;;;5.53;;
51296;SDS011;37380;45.186;9.792;2023-05-14T03:03:21;5.97;;;5.38;;
51296;SDS011;37380;45.186;9.792;2023-05-14T03:06:15;5.97;;;5.40;;
51296;SDS011;37380;45.186;9.792;2023-05-14T03:08:42;6.40;;;5.75;;
51296;SDS011;37380;45.186;9.792;2023-05-14T03:11:09;6.13;;;5.53;;
51296;SDS011;37380;45.186;9.792;2023-05-14T03:13:36;6.45;;;5.72;;
51296;SDS011;37380;45.186;9.792;2023-05-14T03:16:03;5.07;;;4.68;;
51296;SDS011;37380;45.186;9.792;2023-05-14T03:18:32;7.95;;;5.85;;
51296;SDS011;37380;45.186;9.792;2023-05-14T03:21:00;5.35;;;4.95;;
51296;SDS011;37380;45.186;9.792;2023-05-14T03:23:27;13.07;;;5.70;;
51296;SDS011;37380;45.186;9.792;2023-05-14T03:25:54;6.45;;;5.85;;
51296;SDS011;37380;45.186;9.792;2023-05-14T03:28:23;8.55;;;6.88;;
51296;SDS011;37380;45.186;9.792;2023-05-14T03:30:50;7.88;;;7.28;;
51296;SDS011;37380;45.186;9.792;2023-05-14T03:33:19;15.93;;;9.43;;
51296;SDS011;37380;45.186;9.792;2023-05-14T03:35:46;9.25;;;8.55;;
51296;SDS011;37380;45.186;9.792;2023-05-14T03:38:14;13.82;;;9.35;;
51296;SDS011;37380;45.186;9.792;2023-05-14T03:40:45;12.02;;;11.02;;
51296;SDS011;37380;45.186;9.792;2023-05-14T03:43:12;12.95;;;11.65;;
51296;SDS011;37380;45.186;9.792;2023-05-14T03:45:41;13.05;;;10.23;;
51296;SDS011;37380;45.186;9.792;2023-05-14T03:48:08;11.70;;;10.80;;
51296;SDS011;37380;45.186;9.792;2023-05-14T03:50:36;14.18;;;12.20;;
51296;SDS011;37380;45.186;9.792;2023-05-14T03:53:04;13.27;;;12.10;;
51296;SDS011;37380;45.186;9.792;2023-05-14T03:55:38;14.73;;;13.38;;
51296;SDS011;37380;45.186;9.792;2023-05-14T03:58:40;13.70;;;12.73;;
51296;SDS011;37380;45.186;9.792;2023-05-14T04:01:41;24.23;;;15.73;;
51296;SDS011;37380;45.186;9.792;2023-05-14T04:04:43;16.23;;;14.98;;
51296;SDS011;37380;45.186;9.792;2023-05-14T04:07:37;15.48;;;13.90;;
51296;SDS011;37380;45.186;9.792;2023-05-14T04:10:04;17.98;;;16.38;;
51296;SDS011;37380;45.186;9.792;2023-05-14T04:12:34;17.95;;;16.45;;
51296;SDS011;37380;45.186;9.792;2023-05-14T04:15:02;17.67;;;15.73;;
51296;SDS011;37380;45.186;9.792;2023-05-14T04:17:30;15.85;;;14.40;;
51296;SDS011;37380;45.186;9.792;2023-05-14T04:19:59;17.05;;;15.65;;
51296;SDS011;37380;45.186;9.792;2023-05-14T04:22:27;18.40;;;16.70;;
51296;SDS011;37380;45.186;9.792;2023-05-14T04:24:55;18.27;;;16.52;;
51296;SDS011;37380;45.186;9.792;2023-05-14T04:27:22;19.95;;;15.48;;
51296;SDS011;37380;45.186;9.792;2023-05-14T04:29:49;18.23;;;16.75;;
51296;SDS011;37380;45.186;9.792;2023-05-14T04:32:18;21.63;;;16.92;;
51296;SDS011;37380;45.186;9.792;2023-05-14T04:34:46;17.25;;;15.55;;
51296;SDS011;37380;45.186;9.792;2023-05-14T04:37:14;20.38;;;15.57;;
51296;SDS011;37380;45.186;9.792;2023-05-14T04:39:42;17.83;;;16.35;;
51296;SDS011;37380;45.186;9.792;2023-05-14T04:42:10;16.33;;;14.82;;
51296;SDS011;37380;45.186;9.792;2023-05-14T04:44:37;15.88;;;14.68;;
51296;SDS011;37380;45.186;9.792;2023-05-14T04:47:10;18.95;;;17.15;;
51296;SDS011;37380;45.186;9.792;2023-05-14T04:50:04;16.42;;;14.63;;
51296;SDS011;37380;45.186;9.792;2023-05-14T04:52:33;15.45;;;13.60;;
51296;SDS011;37380;45.186;9.792;2023-05-14T04:55:07;17.00;;;14.57;;
51296;SDS011;37380;45.186;9.792;2023-05-14T04:58:08;17.75;;;14.63;;
51296;SDS011;37380;45.186;9.792;2023-05-14T05:01:09;14.88;;;13.43;;
51296;SDS011;37380;45.186;9.792;2023-05-14T05:04:10;14.70;;;13.07;;
51296;SDS011;37380;45.186;9.792;2023-05-14T05:07:04;14.30;;;13.07;;
51296;SDS011;37380;45.186;9.792;2023-05-14T05:09:32;13.93;;;12.85;;
51296;SDS011;37380;45.186;9.792;2023-05-14T05:11:59;17.05;;;13.90;;
51296;SDS011;37380;45.186;9.792;2023-05-14T05:14:27;13.73;;;12.23;;
51296;SDS011;37380;45.186;9.792;2023-05-14T05:16:54;12.55;;;11.40;;
51296;SDS011;37380;45.186;9.792;2023-05-14T05:19:23;13.20;;;11.88;;
51296;SDS011;37380;45.186;9.792;2023-05-14T05:22:05;12.27;;;11.23;;
51296;SDS011;37380;45.186;9.792;2023-05-14T05:24:32;11.13;;;10.25;;
51296;SDS011;37380;45.186;9.792;2023-05-14T05:26:59;11.27;;;10.27;;
51296;SDS011;37380;45.186;9.792;2023-05-14T05:29:27;14.48;;;10.23;;
51296;SDS011;37380;45.186;9.792;2023-05-14T05:31:54;8.88;;;8.18;;
51296;SDS011;37380;45.186;9.792;2023-05-14T05:34:22;9.70;;;8.73;;
51296;SDS011;37380;45.186;9.792;2023-05-14T05:36:50;9.48;;;8.73;;
51296;SDS011;37380;45.186;9.792;2023-05-14T05:39:17;13.13;;;9.93;;
51296;SDS011;37380;45.186;9.792;2023-05-14T05:41:44;15.50;;;9.05;;
51296;SDS011;37380;45.186;9.792;2023-05-14T05:44:12;11.23;;;9.18;;
51296;SDS011;37380;45.186;9.792;2023-05-14T05:46:39;9.35;;;8.52;;
51296;SDS011;37380;45.186;9.792;2023-05-14T05:49:06;10.20;;;9.27;;
51296;SDS011;37380;45.186;9.792;2023-05-14T05:51:33;13.00;;;9.70;;
51296;SDS011;37380;45.186;9.792;2023-05-14T05:54:01;10.35;;;8.90;;
51296;SDS011;37380;45.186;9.792;2023-05-14T05:56:35;10.02;;;9.23;;
51296;SDS011;37380;45.186;9.792;2023-05-14T05:59:36;11.07;;;7.93;;
51296;SDS011;37380;45.186;9.792;2023-05-14T06:02:37;11.95;;;8.48;;
51296;SDS011;37380;45.186;9.792;2023-05-14T06:05:39;9.30;;;8.35;;
51296;SDS011;37380;45.186;9.792;2023-05-14T06:08:26;10.93;;;7.05;;
51296;SDS011;37380;45.186;9.792;2023-05-14T06:10:54;6.75;;;6.25;;
51296;SDS011;37380;45.186;9.792;2023-05-14T06:13:22;7.60;;;6.75;;
51296;SDS011;37380;45.186;9.792;2023-05-14T06:15:49;6.78;;;6.20;;
51296;SDS011;37380;45.186;9.792;2023-05-14T06:18:16;10.27;;;6.97;;
51296;SDS011;37380;45.186;9.792;2023-05-14T06:20:50;5.25;;;4.85;;
51296;SDS011;37380;45.186;9.792;2023-05-14T06:23:45;6.30;;;5.70;;
51296;SDS011;37380;45.186;9.792;2023-05-14T06:26:13;7.25;;;4.68;;
51296;SDS011;37380;45.186;9.792;2023-05-14T06:28:40;6.68;;;3.80;;
51296;SDS011;37380;45.186;9.792;2023-05-14T06:31:06;4.10;;;3.53;;
51296;SDS011;37380;45.186;9.792;2023-05-14T06:33:33;4.53;;;3.13;;
51296;SDS011;37380;45.186;9.792;2023-05-14T06:36:02;4.60;;;3.05;;
51296;SDS011;37380;45.186;9.792;2023-05-14T06:38:30;8.50;;;2.90;;
51296;SDS011;37380;45.186;9.792;2023-05-14T06:40:58;3.92;;;3.28;;
51296;SDS011;37380;45.186;9.792;2023-05-14T06:43:25;2.80;;;2.55;;
51296;SDS011;37380;45.186;9.792;2023-05-14T06:45:52;3.00;;;2.80;;
51296;SDS011;37380;45.186;9.792;2023-05-14T06:48:19;3.92;;;2.50;;
51296;SDS011;37380;45.186;9.792;2023-05-14T06:50:47;2.20;;;2.10;;
51296;SDS011;37380;45.186;9.792;2023-05-14T06:53:15;4.60;;;2.80;;
51296;SDS011;37380;45.186;9.792;2023-05-14T06:55:49;3.22;;;2.92;;
51296;SDS011;37380;45.186;9.792;2023-05-14T06:58:43;9.80;;;2.97;;
51296;SDS011;37380;45.186;9.792;2023-05-14T07:01:17;4.88;;;3.00;;
51296;SDS011;37380;45.186;9.792;2023-05-14T07:04:04;12.57;;;4.40;;
51296;SDS011;37380;45.186;9.792;2023-05-14T07:06:31;5.70;;;4.50;;
51296;SDS011;37380;45.186;9.792;2023-05-14T07:08:59;7.45;;;3.60;;
51296;SDS011;37380;45.186;9.792;2023-05-14T07:11:27;7.35;;;3.53;;
51296;SDS011;37380;45.186;9.792;2023-05-14T07:13:54;5.72;;;3.50;;
51296;SDS011;37380;45.186;9.792;2023-05-14T07:16:21;9.40;;;3.08;;
51296;SDS011;37380;45.186;9.792;2023-05-14T07:18:48;2.70;;;2.50;;
51296;SDS011;37380;45.186;9.792;2023-05-14T07:21:15;5.15;;;3.20;;
51296;SDS011;37380;45.186;9.792;2023-05-14T07:23:42;6.00;;;3.22;;
51296;SDS011;37380;45.186;9.792;2023-05-14T07:26:15;3.17;;;2.72;;
51296;SDS011;37380;45.186;9.792;2023-05-14T07:29:17;5.68;;;3.38;;
51296;SDS011;37380;45.186;9.792;2023-05-14T07:32:11;3.78;;;3.22;;
51296;SDS011;37380;45.186;9.792;2023-05-14T07:34:41;2.97;;;2.70;;
51296;SDS011;37380;45.186;9.792;2023-05-14T07:37:08;3.45;;;3.10;;
51296;SDS011;37380;45.186;9.792;2023-05-14T07:39:35;3.55;;;3.30;;
51296;SDS011;37380;45.186;9.792;2023-05-14T07:42:03;6.45;;;2.60;;
51296;SDS011;37380;45.186;9.792;2023-05-14T07:44:30;8.25;;;3.13;;
51296;SDS011;37380;45.186;9.792;2023-05-14T07:46:57;4.40;;;3.72;;
51296;SDS011;37380;45.186;9.792;2023-05-14T07:49:24;4.18;;;3.25;;
51296;SDS011;37380;45.186;9.792;2023-05-14T07:51:51;6.35;;;4.35;;
51296;SDS011;37380;45.186;9.792;2023-05-14T07:54:18;5.05;;;4.05;;
51296;SDS011;37380;45.186;9.792;2023-05-14T07:56:51;4.63;;;4.22;;
51296;SDS011;37380;45.186;9.792;2023-05-14T07:59:52;5.25;;;4.60;;
51296;SDS011;37380;45.186;9.792;2023-05-14T08:02:48;8.95;;;4.80;;
51296;SDS011;37380;45.186;9.792;2023-05-14T08:05:16;5.22;;;4.82;;
51296;SDS011;37380;45.186;9.792;2023-05-14T08:07:43;5.47;;;4.93;;
51296;SDS011;37380;45.186;9.792;2023-05-14T08:10:10;7.50;;;5.80;;
51296;SDS011;37380;45.186;9.792;2023-05-14T08:12:37;4.82;;;4.43;;
51296;SDS011;37380;45.186;9.792;2023-05-14T08:15:05;5.53;;;5.07;;
51296;SDS011;37380;45.186;9.792;2023-05-14T08:17:33;10.27;;;4.47;;
51296;SDS011;37380;45.186;9.792;2023-05-14T08:20:07;7.72;;;5.72;;
51296;SDS011;37380;45.186;9.792;2023-05-14T08:23:01;6.80;;;5.53;;
51296;SDS011;37380;45.186;9.792;2023-05-14T08:25:28;5.97;;;5.47;;
51296;SDS011;37380;45.186;9.792;2023-05-14T08:27:55;7.22;;;6.63;;
51296;SDS011;37380;45.186;9.792;2023-05-14T08:30:22;9.20;;;6.78;;
51296;SDS011;37380;45.186;9.792;2023-05-14T08:32:50;7.00;;;6.40;;
51296;SDS011;37380;45.186;9.792;2023-05-14T08:35:17;11.93;;;7.28;;
51296;SDS011;37380;45.186;9.792;2023-05-14T08:37:44;8.00;;;7.35;;
51296;SDS011;37380;45.186;9.792;2023-05-14T08:40:11;7.93;;;7.15;;
51296;SDS011;37380;45.186;9.792;2023-05-14T08:42:39;10.82;;;7.85;;
51296;SDS011;37380;45.186;9.792;2023-05-14T08:45:12;15.55;;;6.95;;
51296;SDS011;37380;45.186;9.792;2023-05-14T08:47:40;7.85;;;6.50;;
51296;SDS011;37380;45.186;9.792;2023-05-14T08:50:09;7.60;;;6.90;;
51296;SDS011;37380;45.186;9.792;2023-05-14T08:52:37;7.32;;;6.57;;
51296;SDS011;37380;45.186;9.792;2023-05-14T08:55:11;10.40;;;6.10;;
51296;SDS011;37380;45.186;9.792;2023-05-14T08:58:05;7.22;;;5.93;;
51296;SDS011;37380;45.186;9.792;2023-05-14T09:00:59;6.40;;;5.80;;
51296;SDS011;37380;45.186;9.792;2023-05-14T09:04:00;5.43;;;4.93;;
51296;SDS011;37380;45.186;9.792;2023-05-14T09:06:55;5.95;;;5.45;;
51296;SDS011;37380;45.186;9.792;2023-05-14T09:09:22;7.95;;;5.45;;
51296;SDS011;37380;45.186;9.792;2023-05-14T09:11:50;9.95;;;6.10;;
51296;SDS011;37380;45.186;9.792;2023-05-14T09:14:25;5.75;;;5.35;;
51296;SDS011;37380;45.186;9.792;2023-05-14T09:17:19;8.30;;;5.93;;
51296;SDS011;37380;45.186;9.792;2023-05-14T09:19:46;7.57;;;6.90;;
51296;SDS011;37380;45.186;9.792;2023-05-14T09:22:16;5.65;;;5.15;;
51296;SDS011;37380;45.186;9.792;2023-05-14T09:24:44;7.13;;;6.57;;
51296;SDS011;37380;45.186;9.792;2023-05-14T09:27:17;6.05;;;5.55;;
51296;SDS011;37380;45.186;9.792;2023-05-14T09:29:47;8.10;;;7.03;;
51296;SDS011;37380;45.186;9.792;2023-05-14T09:32:14;6.57;;;6.07;;
51296;SDS011;37380;45.186;9.792;2023-05-14T09:34:41;6.07;;;5.47;;
51296;SDS011;37380;45.186;9.792;2023-05-14T09:37:08;6.55;;;6.00;;
51296;SDS011;37380;45.186;9.792;2023-05-14T09:39:36;6.57;;;5.82;;
51296;SDS011;37380;45.186;9.792;2023-05-14T09:42:04;6.00;;;5.60;;
51296;SDS011;37380;45.186;9.792;2023-05-14T09:44:31;6.38;;;5.78;;
51296;SDS011;37380;45.186;9.792;2023-05-14T09:46:58;6.07;;;5.47;;
51296;SDS011;37380;45.186;9.792;2023-05-14T09:49:25;6.97;;;6.38;;
51296;SDS011;37380;45.186;9.792;2023-05-14T09:51:54;7.22;;;6.55;;
51296;SDS011;37380;45.186;9.792;2023-05-14T09:54:23;6.28;;;5.78;;
51296;SDS011;37380;45.186;9.792;2023-05-14T09:56:59;6.85;;;6.20;;
51296;SDS011;37380;45.186;9.792;2023-05-14T10:00:00;7.32;;;5.80;;
51296;SDS011;37380;45.186;9.792;2023-05-14T10:03:05;8.18;;;5.70;;
51296;SDS011;37380;45.186;9.792;2023-05-14T10:06:03;6.78;;;6.28;;
51296;SDS011;37380;45.186;9.792;2023-05-14T10:08:33;6.85;;;5.40;;
51296;SDS011;37380;45.186;9.792;2023-05-14T10:11:05;7.32;;;6.63;;
51296;SDS011;37380;45.186;9.792;2023-05-14T10:13:40;7.65;;;6.95;;
51296;SDS011;37380;45.186;9.792;2023-05-14T10:16:46;7.13;;;6.10;;
51296;SDS011;37380;45.186;9.792;2023-05-14T10:19:51;6.85;;;6.35;;
51296;SDS011;37380;45.186;9.792;2023-05-14T10:22:47;5.68;;;5.20;;
51296;SDS011;37380;45.186;9.792;2023-05-14T10:25:41;6.10;;;5.50;;
51296;SDS011;37380;45.186;9.792;2023-05-14T10:28:09;6.50;;;5.00;;
51296;SDS011;37380;45.186;9.792;2023-05-14T10:30:43;10.18;;;5.00;;
51296;SDS011;37380;45.186;9.792;2023-05-14T10:33:12;5.85;;;4.85;;
51296;SDS011;37380;45.186;9.792;2023-05-14T10:35:51;4.72;;;4.32;;
51296;SDS011;37380;45.186;9.792;2023-05-14T10:38:20;4.68;;;4.28;;
51296;SDS011;37380;45.186;9.792;2023-05-14T10:40:48;7.25;;;4.28;;
51296;SDS011;37380;45.186;9.792;2023-05-14T10:43:19;8.35;;;4.50;;
51296;SDS011;37380;45.186;9.792;2023-05-14T10:45:48;21.05;;;17.92;;
51296;SDS011;37380;45.186;9.792;2023-05-14T10:48:15;11.23;;;7.55;;
51296;SDS011;37380;45.186;9.792;2023-05-14T10:50:42;7.65;;;5.03;;
51296;SDS011;37380;45.186;9.792;2023-05-14T10:53:11;3.47;;;3.05;;
51296;SDS011;37380;45.186;9.792;2023-05-14T10:55:45;3.20;;;2.90;;
51296;SDS011;37380;45.186;9.792;2023-05-14T10:58:43;3.35;;;3.05;;
51296;SDS011;37380;45.186;9.792;2023-05-14T11:01:18;5.80;;;2.95;;
51296;SDS011;37380;45.186;9.792;2023-05-14T11:04:18;3.53;;;2.30;;
51296;SDS011;37380;45.186;9.792;2023-05-14T11:06:45;6.30;;;2.78;;
51296;SDS011;37380;45.186;9.792;2023-05-14T11:09:20;2.47;;;2.25;;
51296;SDS011;37380;45.186;9.792;2023-05-14T11:12:21;2.75;;;2.38;;
51296;SDS011;37380;45.186;9.792;2023-05-14T11:15:16;4.65;;;2.45;;
51296;SDS011;37380;45.186;9.792;2023-05-14T11:17:46;3.88;;;2.50;;
51296;SDS011;37380;45.186;9.792;2023-05-14T11:20:14;3.00;;;2.40;;
51296;SDS011;37380;45.186;9.792;2023-05-14T11:22:49;2.20;;;1.95;;
51296;SDS011;37380;45.186;9.792;2023-05-14T11:25:43;3.50;;;2.65;;
51296;SDS011;37380;45.186;9.792;2023-05-14T11:28:10;1.70;;;1.55;;
51296;SDS011;37380;45.186;9.792;2023-05-14T11:30:37;3.03;;;2.17;;
51296;SDS011;37380;45.186;9.792;2023-05-14T11:33:05;6.70;;;2.05;;
51296;SDS011;37380;45.186;9.792;2023-05-14T11:35:32;2.28;;;2.08;;
51296;SDS011;37380;45.186;9.792;2023-05-14T11:37:59;1.65;;;1.55;;
51296;SDS011;37380;45.186;9.792;2023-05-14T11:40:26;2.22;;;2.05;;
51296;SDS011;37380;45.186;9.792;2023-05-14T11:42:53;2.25;;;1.52;;
51296;SDS011;37380;45.186;9.792;2023-05-14T11:45:24;2.25;;;2.00;;
51296;SDS011;37380;45.186;9.792;2023-05-14T11:47:53;3.92;;;1.45;;
51296;SDS011;37380;45.186;9.792;2023-05-14T11:50:21;1.58;;;1.48;;
51296;SDS011;37380;45.186;9.792;2023-05-14T11:52:49;2.78;;;1.35;;
51296;SDS011;37380;45.186;9.792;2023-05-14T11:55:23;3.92;;;1.15;;
51296;SDS011;37380;45.186;9.792;2023-05-14T11:58:24;1.92;;;1.70;;
51296;SDS011;37380;45.186;9.792;2023-05-14T12:01:26;1.33;;;1.10;;
51296;SDS011;37380;45.186;9.792;2023-05-14T12:04:27;4.57;;;1.70;;
51296;SDS011;37380;45.186;9.792;2023-05-14T12:07:28;1.25;;;1.15;;
51296;SDS011;37380;45.186;9.792;2023-05-14T12:10:29;2.22;;;1.05;;
51296;SDS011;37380;45.186;9.792;2023-05-14T12:13:07;1.67;;;1.55;;
51296;SDS011;37380;45.186;9.792;2023-05-14T12:15:35;1.80;;;1.00;;
51296;SDS011;37380;45.186;9.792;2023-05-14T12:18:07;0.98;;;0.93;;
51296;SDS011;37380;45.186;9.792;2023-05-14T12:20:50;2.78;;;1.33;;
51296;SDS011;37380;45.186;9.792;2023-05-14T12:23:25;1.02;;;1.00;;
51296;SDS011;37380;45.186;9.792;2023-05-14T12:25:53;1.83;;;1.00;;
51296;SDS011;37380;45.186;9.792;2023-05-14T12:28:21;1.75;;;1.38;;
51296;SDS011;37380;45.186;9.792;2023-05-14T12:30:54;2.40;;;1.08;;
51296;SDS011;37380;45.186;9.792;2023-05-14T12:33:23;8.45;;;0.80;;
51296;SDS011;37380;45.186;9.792;2023-05-14T12:35:52;2.00;;;1.45;;
51296;SDS011;37380;45.186;9.792;2023-05-14T12:38:20;6.32;;;1.02;;
51296;SDS011;37380;45.186;9.792;2023-05-14T12:40:53;4.88;;;1.10;;
51296;SDS011;37380;45.186;9.792;2023-05-14T12:43:54;1.40;;;1.08;;
51296;SDS011;37380;45.186;9.792;2023-05-14T12:46:48;3.00;;;0.82;;
51296;SDS011;37380;45.186;9.792;2023-05-14T12:49:15;2.90;;;1.50;;
51296;SDS011;37380;45.186;9.792;2023-05-14T12:51:43;2.78;;;1.10;;
51296;SDS011;37380;45.186;9.792;2023-05-14T12:54:10;1.40;;;0.98;;
51296;SDS011;37380;45.186;9.792;2023-05-14T12:56:37;2.70;;;1.35;;
51296;SDS011;37380;45.186;9.792;2023-05-14T12:59:11;1.65;;;1.27;;
51296;SDS011;37380;45.186;9.792;2023-05-14T13:02:12;9.57;;;0.90;;
51296;SDS011;37380;45.186;9.792;2023-05-14T13:05:11;7.03;;;0.90;;
51296;SDS011;37380;45.186;9.792;2023-05-14T13:07:38;1.90;;;0.95;;
51296;SDS011;37380;45.186;9.792;2023-05-14T13:10:05;2.95;;;0.70;;
51296;SDS011;37380;45.186;9.792;2023-05-14T13:12:34;1.00;;;0.93;;
51296;SDS011;37380;45.186;9.792;2023-05-14T13:15:01;1.98;;;0.88;;
51296;SDS011;37380;45.186;9.792;2023-05-14T13:17:30;1.42;;;0.88;;
51296;SDS011;37380;45.186;9.792;2023-05-14T13:19:58;2.55;;;0.98;;
51296;SDS011;37380;45.186;9.792;2023-05-14T13:22:25;1.05;;;0.95;;
51296;SDS011;37380;45.186;9.792;2023-05-14T13:24:52;0.70;;;0.70;;
51296;SDS011;37380;45.186;9.792;2023-05-14T13:27:19;3.55;;;0.90;;
51296;SDS011;37380;45.186;9.792;2023-05-14T13:29:46;0.60;;;0.60;;
51296;SDS011;37380;45.186;9.792;2023-05-14T13:32:13;2.22;;;1.35;;
51296;SDS011;37380;45.186;9.792;2023-05-14T13:34:40;8.90;;;0.90;;
51296;SDS011;37380;45.186;9.792;2023-05-14T13:37:08;1.85;;;1.02;;
51296;SDS011;37380;45.186;9.792;2023-05-14T13:39:35;3.60;;;0.70;;
51296;SDS011;37380;45.186;9.792;2023-05-14T13:42:08;0.75;;;0.75;;
51296;SDS011;37380;45.186;9.792;2023-05-14T13:45:09;0.90;;;0.80;;
51296;SDS011;37380;45.186;9.792;2023-05-14T13:48:03;1.25;;;1.00;;
51296;SDS011;37380;45.186;9.792;2023-05-14T13:50:31;1.30;;;1.00;;
51296;SDS011;37380;45.186;9.792;2023-05-14T13:52:58;3.75;;;0.98;;
51296;SDS011;37380;45.186;9.792;2023-05-14T13:55:32;2.17;;;0.90;;
51296;SDS011;37380;45.186;9.792;2023-05-14T13:58:35;3.38;;;1.10;;
51296;SDS011;37380;45.186;9.792;2023-05-14T14:01:36;5.60;;;1.40;;
51296;SDS011;37380;45.186;9.792;2023-05-14T14:04:30;3.25;;;1.27;;
51296;SDS011;37380;45.186;9.792;2023-05-14T14:07:04;1.70;;;1.05;;
51296;SDS011;37380;45.186;9.792;2023-05-14T14:09:58;1.25;;;0.80;;
51296;SDS011;37380;45.186;9.792;2023-05-14T14:12:27;4.30;;;1.15;;
51296;SDS011;37380;45.186;9.792;2023-05-14T14:14:55;4.22;;;1.10;;
51296;SDS011;37380;45.186;9.792;2023-05-14T14:17:22;1.10;;;0.80;;
51296;SDS011;37380;45.186;9.792;2023-05-14T14:19:50;3.22;;;0.95;;
51296;SDS011;37380;45.186;9.792;2023-05-14T14:22:17;3.80;;;1.10;;
51296;SDS011;37380;45.186;9.792;2023-05-14T14:24:44;6.65;;;1.38;;
51296;SDS011;37380;45.186;9.792;2023-05-14T14:27:12;2.30;;;1.45;;
51296;SDS011;37380;45.186;9.792;2023-05-14T14:29:46;1.10;;;1.00;;
51296;SDS011;37380;45.186;9.792;2023-05-14T14:32:43;2.60;;;1.60;;
51296;SDS011;37380;45.186;9.792;2023-05-14T14:35:12;1.45;;;1.00;;
51296;SDS011;37380;45.186;9.792;2023-05-14T14:37:40;2.00;;;1.33;;
51296;SDS011;37380;45.186;9.792;2023-05-14T14:40:15;2.90;;;1.67;;
51296;SDS011;37380;45.186;9.792;2023-05-14T14:43:16;3.35;;;1.63;;
51296;SDS011;37380;45.186;9.792;2023-05-14T14:46:17;4.57;;;1.10;;
51296;SDS011;37380;45.186;9.792;2023-05-14T14:48:57;2.75;;;0.90;;
51296;SDS011;37380;45.186;9.792;2023-05-14T14:51:51;1.30;;;1.00;;
51296;SDS011;37380;45.186;9.792;2023-05-14T14:54:18;2.42;;;1.08;;
51296;SDS011;37380;45.186;9.792;2023-05-14T14:56:46;1.48;;;0.70;;
51296;SDS011;37380;45.186;9.792;2023-05-14T14:59:21;1.33;;;1.00;;
51296;SDS011;37380;45.186;9.792;2023-05-14T15:02:22;1.30;;;1.10;;
51296;SDS011;37380;45.186;9.792;2023-05-14T15:05:17;1.45;;;1.00;;
51296;SDS011;37380;45.186;9.792;2023-05-14T15:07:44;1.65;;;0.50;;
51296;SDS011;37380;45.186;9.792;2023-05-14T15:10:11;1.35;;;0.98;;
51296;SDS011;37380;45.186;9.792;2023-05-14T15:12:38;1.15;;;0.98;;
51296;SDS011;37380;45.186;9.792;2023-05-14T15:15:05;1.85;;;1.33;;
51296;SDS011;37380;45.186;9.792;2023-05-14T15:17:33;1.40;;;1.15;;
51296;SDS011;37380;45.186;9.792;2023-05-14T15:20:00;5.65;;;1.42;;
51296;SDS011;37380;45.186;9.792;2023-05-14T15:22:28;2.80;;;0.98;;
51296;SDS011;37380;45.186;9.792;2023-05-14T15:24:55;4.65;;;0.98;;
51296;SDS011;37380;45.186;9.792;2023-05-14T15:27:21;1.13;;;0.80;;
51296;SDS011;37380;45.186;9.792;2023-05-14T15:29:48;13.80;;;1.75;;
51296;SDS011;37380;45.186;9.792;2023-05-14T15:32:15;1.80;;;1.45;;
51296;SDS011;37380;45.186;9.792;2023-05-14T15:34:43;3.30;;;0.95;;